sensor_id;sensor_type;location;lat;lon;timestamp;temperature;humidity
56137;DHT22;42008;52.934;5.884;2022-11-20T00:01:13;-0.80;99.90
56137;DHT22;42008;52.934;5.884;2022-11-20T00:03:40;-2.00;99.90
56137;DHT22;42008;52.934;5.884;2022-11-20T00:06:08;-0.90;99.90
56137;DHT22;42008;52.934;5.884;2022-11-20T00:08:34;-1.70;99.90
56137;DHT22;42008;52.934;5.884;2022-11-20T00:11:10;-1.30;99.90
56137;DHT22;42008;52.934;5.884;2022-11-20T00:13:36;-1.60;99.90
56137;DHT22;42008;52.934;5.884;2022-11-20T00:16:04;-0.70;99.90
56137;DHT22;42008;52.934;5.884;2022-11-20T00:18:30;-1.40;99.90
56137;DHT22;42008;52.934;5.884;2022-11-20T00:21:04;0.40;99.90
56137;DHT22;42008;52.934;5.884;2022-11-20T00:23:30;-0.50;99.90
56137;DHT22;42008;52.934;5.884;2022-11-20T00:25:56;-1.00;99.90
56137;DHT22;42008;52.934;5.884;2022-11-20T00:28:22;-0.80;99.90
56137;DHT22;42008;52.934;5.884;2022-11-20T00:30:47;0.10;99.90
56137;DHT22;42008;52.934;5.884;2022-11-20T00:33:13;-1.30;99.90
56137;DHT22;42008;52.934;5.884;2022-11-20T00:35:39;-0.70;99.90
56137;DHT22;42008;52.934;5.884;2022-11-20T00:38:04;0.20;99.90
56137;DHT22;42008;52.934;5.884;2022-11-20T00:40:30;-0.70;99.90
56137;DHT22;42008;52.934;5.884;2022-11-20T00:42:55;-1.00;99.90
56137;DHT22;42008;52.934;5.884;2022-11-20T00:45:21;-0.60;99.90
56137;DHT22;42008;52.934;5.884;2022-11-20T00:47:46;-0.70;99.90
56137;DHT22;42008;52.934;5.884;2022-11-20T00:50:12;-1.20;99.90
56137;DHT22;42008;52.934;5.884;2022-11-20T00:52:37;-1.90;99.90
56137;DHT22;42008;52.934;5.884;2022-11-20T00:55:04;-0.90;99.90
56137;DHT22;42008;52.934;5.884;2022-11-20T00:57:30;-1.30;99.90
56137;DHT22;42008;52.934;5.884;2022-11-20T00:59:55;-0.80;99.90
56137;DHT22;42008;52.934;5.884;2022-11-20T01:02:21;-0.50;99.90
56137;DHT22;42008;52.934;5.884;2022-11-20T01:04:46;-0.70;99.90
56137;DHT22;42008;52.934;5.884;2022-11-20T01:07:12;0.10;99.90
56137;DHT22;42008;52.934;5.884;2022-11-20T01:09:37;0.20;99.90
56137;DHT22;42008;52.934;5.884;2022-11-20T01:12:03;-0.80;99.90
56137;DHT22;42008;52.934;5.884;2022-11-20T01:14:29;0.10;99.90
56137;DHT22;42008;52.934;5.884;2022-11-20T01:16:54;0.30;99.90
56137;DHT22;42008;52.934;5.884;2022-11-20T01:19:21;0.10;99.90
56137;DHT22;42008;52.934;5.884;2022-11-20T01:21:51;-0.90;99.90
56137;DHT22;42008;52.934;5.884;2022-11-20T01:24:19;-1.10;99.40
56137;DHT22;42008;52.934;5.884;2022-11-20T01:26:46;-0.60;97.40
56137;DHT22;42008;52.934;5.884;2022-11-20T01:29:18;-0.30;94.20
56137;DHT22;42008;52.934;5.884;2022-11-20T01:31:44;-0.80;94.80
56137;DHT22;42008;52.934;5.884;2022-11-20T01:34:12;-0.40;96.00
56137;DHT22;42008;52.934;5.884;2022-11-20T01:36:38;-0.90;94.90
56137;DHT22;42008;52.934;5.884;2022-11-20T01:39:09;-1.40;93.40
56137;DHT22;42008;52.934;5.884;2022-11-20T01:41:35;-0.20;93.10
56137;DHT22;42008;52.934;5.884;2022-11-20T01:44:39;-0.60;91.40
56137;DHT22;42008;52.934;5.884;2022-11-20T01:47:08;-0.70;86.60
56137;DHT22;42008;52.934;5.884;2022-11-20T01:49:41;-0.40;69.60
56137;DHT22;42008;52.934;5.884;2022-11-20T01:55:01;-0.40;38.40
56137;DHT22;42008;52.934;5.884;2022-11-20T01:57:30;-1.80;37.30
56137;DHT22;42008;52.934;5.884;2022-11-20T02:00:01;-0.90;47.50
56137;DHT22;42008;52.934;5.884;2022-11-20T02:02:28;-2.20;51.00
56137;DHT22;42008;52.934;5.884;2022-11-20T02:04:56;-2.20;50.00
56137;DHT22;42008;52.934;5.884;2022-11-20T02:07:26;-0.80;48.60
56137;DHT22;42008;52.934;5.884;2022-11-20T02:09:53;-0.60;53.10
56137;DHT22;42008;52.934;5.884;2022-11-20T02:12:19;-1.10;89.50
56137;DHT22;42008;52.934;5.884;2022-11-20T02:15:03;-1.30;80.90
56137;DHT22;42008;52.934;5.884;2022-11-20T02:17:29;-0.90;82.00
56137;DHT22;42008;52.934;5.884;2022-11-20T02:19:55;-1.00;81.10
56137;DHT22;42008;52.934;5.884;2022-11-20T02:22:26;-0.30;84.20
56137;DHT22;42008;52.934;5.884;2022-11-20T02:24:54;-1.10;80.60
56137;DHT22;42008;52.934;5.884;2022-11-20T02:27:20;-0.60;82.30
56137;DHT22;42008;52.934;5.884;2022-11-20T02:29:56;-2.10;78.40
56137;DHT22;42008;52.934;5.884;2022-11-20T02:32:27;-1.20;79.90
56137;DHT22;42008;52.934;5.884;2022-11-20T02:34:53;-0.60;73.40
56137;DHT22;42008;52.934;5.884;2022-11-20T02:37:19;-0.80;65.30
56137;DHT22;42008;52.934;5.884;2022-11-20T02:39:47;-1.70;62.90
56137;DHT22;42008;52.934;5.884;2022-11-20T02:42:15;-0.70;59.50
56137;DHT22;42008;52.934;5.884;2022-11-20T02:44:41;-1.10;69.80
56137;DHT22;42008;52.934;5.884;2022-11-20T02:47:06;-1.50;93.00
56137;DHT22;42008;52.934;5.884;2022-11-20T02:49:32;-1.70;90.60
56137;DHT22;42008;52.934;5.884;2022-11-20T02:51:59;-1.10;75.70
56137;DHT22;42008;52.934;5.884;2022-11-20T02:54:25;-1.30;60.20
56137;DHT22;42008;52.934;5.884;2022-11-20T02:56:50;-1.90;60.10
56137;DHT22;42008;52.934;5.884;2022-11-20T02:59:16;-1.50;79.50
56137;DHT22;42008;52.934;5.884;2022-11-20T03:01:42;-0.50;94.60
56137;DHT22;42008;52.934;5.884;2022-11-20T03:04:07;-1.30;99.90
56137;DHT22;42008;52.934;5.884;2022-11-20T03:06:34;-0.80;99.90
56137;DHT22;42008;52.934;5.884;2022-11-20T03:08:59;-0.90;99.90
56137;DHT22;42008;52.934;5.884;2022-11-20T03:11:25;-1.10;99.90
56137;DHT22;42008;52.934;5.884;2022-11-20T03:13:51;-0.30;99.90
56137;DHT22;42008;52.934;5.884;2022-11-20T03:16:19;-1.60;99.90
56137;DHT22;42008;52.934;5.884;2022-11-20T03:18:45;-0.90;99.20
56137;DHT22;42008;52.934;5.884;2022-11-20T03:21:11;-1.10;99.90
56137;DHT22;42008;52.934;5.884;2022-11-20T03:23:38;-1.00;99.90
56137;DHT22;42008;52.934;5.884;2022-11-20T03:26:17;-1.60;99.90
56137;DHT22;42008;52.934;5.884;2022-11-20T03:28:58;-0.60;99.90
56137;DHT22;42008;52.934;5.884;2022-11-20T03:31:30;-2.10;99.90
56137;DHT22;42008;52.934;5.884;2022-11-20T03:33:57;-1.30;99.90
56137;DHT22;42008;52.934;5.884;2022-11-20T03:36:23;-0.80;99.90
56137;DHT22;42008;52.934;5.884;2022-11-20T03:38:49;-1.70;98.90
56137;DHT22;42008;52.934;5.884;2022-11-20T03:41:18;-1.80;95.70
56137;DHT22;42008;52.934;5.884;2022-11-20T03:43:48;-1.70;93.00
56137;DHT22;42008;52.934;5.884;2022-11-20T03:46:14;-2.10;80.50
56137;DHT22;42008;52.934;5.884;2022-11-20T03:48:40;-1.80;87.00
56137;DHT22;42008;52.934;5.884;2022-11-20T03:51:14;-2.30;82.30
56137;DHT22;42008;52.934;5.884;2022-11-20T03:53:42;-2.30;81.40
56137;DHT22;42008;52.934;5.884;2022-11-20T03:56:09;-2.50;91.10
56137;DHT22;42008;52.934;5.884;2022-11-20T03:58:36;-2.40;91.40
56137;DHT22;42008;52.934;5.884;2022-11-20T04:01:19;-1.10;92.70
56137;DHT22;42008;52.934;5.884;2022-11-20T04:03:45;-1.40;92.00
56137;DHT22;42008;52.934;5.884;2022-11-20T04:06:14;-2.00;75.60
56137;DHT22;42008;52.934;5.884;2022-11-20T04:08:41;-1.70;66.00
56137;DHT22;42008;52.934;5.884;2022-11-20T04:11:11;-1.90;72.90
56137;DHT22;42008;52.934;5.884;2022-11-20T04:13:38;-1.90;78.60
56137;DHT22;42008;52.934;5.884;2022-11-20T04:16:05;-1.40;81.90
56137;DHT22;42008;52.934;5.884;2022-11-20T04:18:31;-2.60;84.20
56137;DHT22;42008;52.934;5.884;2022-11-20T04:21:00;-2.20;92.00
56137;DHT22;42008;52.934;5.884;2022-11-20T04:23:26;-1.20;96.10
56137;DHT22;42008;52.934;5.884;2022-11-20T04:25:52;-1.60;99.90
56137;DHT22;42008;52.934;5.884;2022-11-20T04:28:17;-1.80;94.40
56137;DHT22;42008;52.934;5.884;2022-11-20T04:30:43;-1.60;90.00
56137;DHT22;42008;52.934;5.884;2022-11-20T04:33:09;-1.60;87.60
56137;DHT22;42008;52.934;5.884;2022-11-20T04:35:35;-1.70;86.30
56137;DHT22;42008;52.934;5.884;2022-11-20T04:38:01;-1.20;90.60
56137;DHT22;42008;52.934;5.884;2022-11-20T04:40:27;-1.80;95.20
56137;DHT22;42008;52.934;5.884;2022-11-20T04:42:54;-1.50;98.50
56137;DHT22;42008;52.934;5.884;2022-11-20T04:45:20;-2.00;98.70
56137;DHT22;42008;52.934;5.884;2022-11-20T04:47:46;-1.90;98.20
56137;DHT22;42008;52.934;5.884;2022-11-20T04:50:11;-2.20;99.40
56137;DHT22;42008;52.934;5.884;2022-11-20T04:52:37;-2.00;99.90
56137;DHT22;42008;52.934;5.884;2022-11-20T04:55:03;-0.90;93.00
56137;DHT22;42008;52.934;5.884;2022-11-20T04:57:28;-1.00;75.90
56137;DHT22;42008;52.934;5.884;2022-11-20T04:59:54;-1.90;66.30
56137;DHT22;42008;52.934;5.884;2022-11-20T05:02:20;-2.00;68.00
56137;DHT22;42008;52.934;5.884;2022-11-20T05:04:45;-2.30;78.10
56137;DHT22;42008;52.934;5.884;2022-11-20T05:07:11;-2.20;91.90
56137;DHT22;42008;52.934;5.884;2022-11-20T05:09:37;-1.70;98.60
56137;DHT22;42008;52.934;5.884;2022-11-20T05:12:02;-1.90;99.90
56137;DHT22;42008;52.934;5.884;2022-11-20T05:14:28;-1.70;99.90
56137;DHT22;42008;52.934;5.884;2022-11-20T05:16:53;-1.70;99.90
56137;DHT22;42008;52.934;5.884;2022-11-20T05:19:19;-1.80;99.90
56137;DHT22;42008;52.934;5.884;2022-11-20T05:21:45;-2.40;99.90
56137;DHT22;42008;52.934;5.884;2022-11-20T05:24:10;-2.80;99.90
56137;DHT22;42008;52.934;5.884;2022-11-20T05:26:36;-1.90;99.90
56137;DHT22;42008;52.934;5.884;2022-11-20T05:29:01;-1.90;99.90
56137;DHT22;42008;52.934;5.884;2022-11-20T05:31:27;-2.60;99.90
56137;DHT22;42008;52.934;5.884;2022-11-20T05:33:53;-3.30;99.90
56137;DHT22;42008;52.934;5.884;2022-11-20T05:36:18;-1.90;99.90
56137;DHT22;42008;52.934;5.884;2022-11-20T05:38:44;-3.20;99.90
56137;DHT22;42008;52.934;5.884;2022-11-20T05:41:18;-1.80;99.90
56137;DHT22;42008;52.934;5.884;2022-11-20T05:43:45;-2.00;99.90
56137;DHT22;42008;52.934;5.884;2022-11-20T05:46:13;-3.00;99.90
56137;DHT22;42008;52.934;5.884;2022-11-20T05:48:40;-2.00;99.90
56137;DHT22;42008;52.934;5.884;2022-11-20T05:51:07;-1.50;99.90
56137;DHT22;42008;52.934;5.884;2022-11-20T05:53:34;-1.60;99.90
56137;DHT22;42008;52.934;5.884;2022-11-20T05:56:15;-1.80;99.90
56137;DHT22;42008;52.934;5.884;2022-11-20T05:58:42;-1.80;99.90
56137;DHT22;42008;52.934;5.884;2022-11-20T06:01:15;-1.70;99.90
56137;DHT22;42008;52.934;5.884;2022-11-20T06:03:41;-2.30;99.90
56137;DHT22;42008;52.934;5.884;2022-11-20T06:06:08;-2.30;99.90
56137;DHT22;42008;52.934;5.884;2022-11-20T06:08:34;-2.90;99.90
56137;DHT22;42008;52.934;5.884;2022-11-20T06:11:06;-3.20;99.90
56137;DHT22;42008;52.934;5.884;2022-11-20T06:13:33;-2.20;99.90
56137;DHT22;42008;52.934;5.884;2022-11-20T06:15:58;-2.20;99.90
56137;DHT22;42008;52.934;5.884;2022-11-20T06:18:26;-1.40;99.90
56137;DHT22;42008;52.934;5.884;2022-11-20T06:21:00;-2.10;99.90
56137;DHT22;42008;52.934;5.884;2022-11-20T06:23:28;-1.90;99.90
56137;DHT22;42008;52.934;5.884;2022-11-20T06:25:53;-2.00;99.90
56137;DHT22;42008;52.934;5.884;2022-11-20T06:28:19;-1.60;99.90
56137;DHT22;42008;52.934;5.884;2022-11-20T06:30:45;-2.90;99.90
56137;DHT22;42008;52.934;5.884;2022-11-20T06:33:11;-2.30;99.90
56137;DHT22;42008;52.934;5.884;2022-11-20T06:35:36;-2.80;99.90
56137;DHT22;42008;52.934;5.884;2022-11-20T06:38:02;-2.90;99.90
56137;DHT22;42008;52.934;5.884;2022-11-20T06:40:28;-1.90;99.90
56137;DHT22;42008;52.934;5.884;2022-11-20T06:42:54;-3.00;99.90
56137;DHT22;42008;52.934;5.884;2022-11-20T06:45:20;-2.40;99.90
56137;DHT22;42008;52.934;5.884;2022-11-20T06:47:45;-0.80;99.90
56137;DHT22;42008;52.934;5.884;2022-11-20T06:50:11;-2.80;99.90
56137;DHT22;42008;52.934;5.884;2022-11-20T06:52:37;-2.50;99.90
56137;DHT22;42008;52.934;5.884;2022-11-20T06:55:02;-2.40;99.90
56137;DHT22;42008;52.934;5.884;2022-11-20T06:57:28;-1.10;99.90
56137;DHT22;42008;52.934;5.884;2022-11-20T06:59:54;-1.70;99.90
56137;DHT22;42008;52.934;5.884;2022-11-20T07:02:19;-0.90;99.90
56137;DHT22;42008;52.934;5.884;2022-11-20T07:04:45;-2.00;99.90
56137;DHT22;42008;52.934;5.884;2022-11-20T07:07:10;-0.50;99.90
56137;DHT22;42008;52.934;5.884;2022-11-20T07:09:36;-1.10;99.90
56137;DHT22;42008;52.934;5.884;2022-11-20T07:12:01;-1.00;99.90
56137;DHT22;42008;52.934;5.884;2022-11-20T07:14:27;-1.90;99.90
56137;DHT22;42008;52.934;5.884;2022-11-20T07:16:53;-2.00;99.90
56137;DHT22;42008;52.934;5.884;2022-11-20T07:19:18;-1.60;99.90
56137;DHT22;42008;52.934;5.884;2022-11-20T07:21:44;-2.00;99.90
56137;DHT22;42008;52.934;5.884;2022-11-20T07:24:09;-1.40;99.90
56137;DHT22;42008;52.934;5.884;2022-11-20T07:26:35;-1.40;99.90
56137;DHT22;42008;52.934;5.884;2022-11-20T07:29:00;-0.60;99.90
56137;DHT22;42008;52.934;5.884;2022-11-20T07:31:26;-1.60;99.90
56137;DHT22;42008;52.934;5.884;2022-11-20T07:33:51;-1.50;99.90
56137;DHT22;42008;52.934;5.884;2022-11-20T07:36:17;-0.30;99.90
56137;DHT22;42008;52.934;5.884;2022-11-20T07:38:43;-0.50;99.90
56137;DHT22;42008;52.934;5.884;2022-11-20T07:41:08;-1.50;99.90
56137;DHT22;42008;52.934;5.884;2022-11-20T07:43:34;-1.60;99.90
56137;DHT22;42008;52.934;5.884;2022-11-20T07:45:59;-1.50;99.90
56137;DHT22;42008;52.934;5.884;2022-11-20T07:48:26;-1.50;99.90
56137;DHT22;42008;52.934;5.884;2022-11-20T07:50:57;-1.80;99.90
56137;DHT22;42008;52.934;5.884;2022-11-20T07:53:23;-0.30;99.90
56137;DHT22;42008;52.934;5.884;2022-11-20T07:55:49;-1.40;99.90
56137;DHT22;42008;52.934;5.884;2022-11-20T07:58:18;-0.80;99.90
56137;DHT22;42008;52.934;5.884;2022-11-20T08:00:44;-1.00;99.90
56137;DHT22;42008;52.934;5.884;2022-11-20T08:03:10;-0.80;99.90
56137;DHT22;42008;52.934;5.884;2022-11-20T08:05:35;-1.60;99.90
56137;DHT22;42008;52.934;5.884;2022-11-20T08:08:01;-2.10;99.90
56137;DHT22;42008;52.934;5.884;2022-11-20T08:10:26;-1.30;99.90
56137;DHT22;42008;52.934;5.884;2022-11-20T08:12:52;-1.80;99.90
56137;DHT22;42008;52.934;5.884;2022-11-20T08:15:38;-1.50;99.90
56137;DHT22;42008;52.934;5.884;2022-11-20T08:18:13;-0.80;99.90
56137;DHT22;42008;52.934;5.884;2022-11-20T08:20:39;-0.90;99.90
56137;DHT22;42008;52.934;5.884;2022-11-20T08:23:05;-1.00;99.90
56137;DHT22;42008;52.934;5.884;2022-11-20T08:25:33;-0.70;99.90
56137;DHT22;42008;52.934;5.884;2022-11-20T08:28:00;0.20;99.90
56137;DHT22;42008;52.934;5.884;2022-11-20T08:30:27;-0.50;99.90
56137;DHT22;42008;52.934;5.884;2022-11-20T08:32:53;-0.60;99.90
56137;DHT22;42008;52.934;5.884;2022-11-20T08:35:19;-0.30;99.90
56137;DHT22;42008;52.934;5.884;2022-11-20T08:37:48;0.20;99.90
56137;DHT22;42008;52.934;5.884;2022-11-20T08:40:14;0.70;99.90
56137;DHT22;42008;52.934;5.884;2022-11-20T08:42:47;0.90;99.90
56137;DHT22;42008;52.934;5.884;2022-11-20T08:45:13;0.90;97.80
56137;DHT22;42008;52.934;5.884;2022-11-20T08:47:39;0.60;92.80
56137;DHT22;42008;52.934;5.884;2022-11-20T08:50:05;1.40;89.90
56137;DHT22;42008;52.934;5.884;2022-11-20T08:52:31;-0.20;76.40
56137;DHT22;42008;52.934;5.884;2022-11-20T08:54:57;0.70;67.90
56137;DHT22;42008;52.934;5.884;2022-11-20T08:57:22;0.70;61.00
56137;DHT22;42008;52.934;5.884;2022-11-20T08:59:48;0.10;55.60
56137;DHT22;42008;52.934;5.884;2022-11-20T09:02:14;0.60;41.30
56137;DHT22;42008;52.934;5.884;2022-11-20T09:04:40;0.40;36.30
56137;DHT22;42008;52.934;5.884;2022-11-20T09:07:06;0.90;27.60
56137;DHT22;42008;52.934;5.884;2022-11-20T09:09:31;0.70;24.20
56137;DHT22;42008;52.934;5.884;2022-11-20T09:11:58;1.40;18.30
56137;DHT22;42008;52.934;5.884;2022-11-20T09:14:23;1.20;9.30
56137;DHT22;42008;52.934;5.884;2022-11-20T09:16:54;1.50;4.30
56137;DHT22;42008;52.934;5.884;2022-11-20T09:19:20;0.80;1.00
56137;DHT22;42008;52.934;5.884;2022-11-20T09:21:45;1.30;1.00
56137;DHT22;42008;52.934;5.884;2022-11-20T09:24:11;0.70;1.00
56137;DHT22;42008;52.934;5.884;2022-11-20T09:26:37;1.10;1.00
56137;DHT22;42008;52.934;5.884;2022-11-20T09:29:02;0.80;1.00
56137;DHT22;42008;52.934;5.884;2022-11-20T09:31:28;1.50;1.00
56137;DHT22;42008;52.934;5.884;2022-11-20T09:33:53;1.10;1.00
56137;DHT22;42008;52.934;5.884;2022-11-20T09:36:19;1.50;1.00
56137;DHT22;42008;52.934;5.884;2022-11-20T09:38:46;1.30;1.00
56137;DHT22;42008;52.934;5.884;2022-11-20T09:52:37;2.40;1.00
56137;DHT22;42008;52.934;5.884;2022-11-20T09:55:09;2.00;1.00
56137;DHT22;42008;52.934;5.884;2022-11-20T09:57:38;3.40;1.00
56137;DHT22;42008;52.934;5.884;2022-11-20T10:00:08;3.80;1.00
56137;DHT22;42008;52.934;5.884;2022-11-20T10:02:53;3.30;1.00
56137;DHT22;42008;52.934;5.884;2022-11-20T10:05:44;2.90;1.00
56137;DHT22;42008;52.934;5.884;2022-11-20T10:08:21;4.00;1.00
56137;DHT22;42008;52.934;5.884;2022-11-20T10:16:31;5.90;1.00
56137;DHT22;42008;52.934;5.884;2022-11-20T10:19:10;5.10;1.00
56137;DHT22;42008;52.934;5.884;2022-11-20T10:24:42;4.90;1.00
56137;DHT22;42008;52.934;5.884;2022-11-20T10:27:44;4.80;1.00
56137;DHT22;42008;52.934;5.884;2022-11-20T10:30:16;4.90;1.00
56137;DHT22;42008;52.934;5.884;2022-11-20T10:33:08;5.10;1.00
56137;DHT22;42008;52.934;5.884;2022-11-20T10:35:55;4.20;1.00
56137;DHT22;42008;52.934;5.884;2022-11-20T10:38:43;4.60;1.00
56137;DHT22;42008;52.934;5.884;2022-11-20T10:41:19;3.70;1.00
56137;DHT22;42008;52.934;5.884;2022-11-20T10:43:54;3.50;1.00
56137;DHT22;42008;52.934;5.884;2022-11-20T10:46:22;3.70;1.00
56137;DHT22;42008;52.934;5.884;2022-11-20T10:48:49;3.70;1.00
56137;DHT22;42008;52.934;5.884;2022-11-20T10:51:34;3.50;1.00
56137;DHT22;42008;52.934;5.884;2022-11-20T10:54:14;3.40;1.00
56137;DHT22;42008;52.934;5.884;2022-11-20T11:02:19;3.30;1.00
56137;DHT22;42008;52.934;5.884;2022-11-20T11:04:51;3.50;1.00
56137;DHT22;42008;52.934;5.884;2022-11-20T11:09:53;3.90;1.00
56137;DHT22;42008;52.934;5.884;2022-11-20T11:12:21;4.10;1.00
56137;DHT22;42008;52.934;5.884;2022-11-20T11:14:51;3.80;1.00
56137;DHT22;42008;52.934;5.884;2022-11-20T11:27:55;5.50;1.00
56137;DHT22;42008;52.934;5.884;2022-11-20T11:30:23;7.80;1.00
56137;DHT22;42008;52.934;5.884;2022-11-20T11:32:49;9.10;1.00
56137;DHT22;42008;52.934;5.884;2022-11-20T11:35:23;8.30;1.00
56137;DHT22;42008;52.934;5.884;2022-11-20T11:37:50;7.40;1.00
56137;DHT22;42008;52.934;5.884;2022-11-20T11:40:18;6.30;1.00
56137;DHT22;42008;52.934;5.884;2022-11-20T11:42:46;5.30;1.00
56137;DHT22;42008;52.934;5.884;2022-11-20T11:45:16;5.70;1.00
56137;DHT22;42008;52.934;5.884;2022-11-20T11:47:46;5.30;1.00
56137;DHT22;42008;52.934;5.884;2022-11-20T11:50:16;5.60;1.00
56137;DHT22;42008;52.934;5.884;2022-11-20T11:55:53;4.70;1.00
56137;DHT22;42008;52.934;5.884;2022-11-20T12:01:45;4.60;1.00
56137;DHT22;42008;52.934;5.884;2022-11-20T12:07:39;3.80;1.00
56137;DHT22;42008;52.934;5.884;2022-11-20T12:10:22;4.70;1.00
56137;DHT22;42008;52.934;5.884;2022-11-20T12:13:02;3.80;1.00
56137;DHT22;42008;52.934;5.884;2022-11-20T12:15:31;4.60;1.00
56137;DHT22;42008;52.934;5.884;2022-11-20T12:17:58;3.20;1.00
56137;DHT22;42008;52.934;5.884;2022-11-20T12:20:31;4.40;1.00
56137;DHT22;42008;52.934;5.884;2022-11-20T12:23:21;4.50;1.00
56137;DHT22;42008;52.934;5.884;2022-11-20T12:25:53;4.00;1.00
56137;DHT22;42008;52.934;5.884;2022-11-20T12:28:52;3.50;1.00
56137;DHT22;42008;52.934;5.884;2022-11-20T12:31:40;3.70;1.00
56137;DHT22;42008;52.934;5.884;2022-11-20T12:37:26;3.90;1.00
56137;DHT22;42008;52.934;5.884;2022-11-20T12:39:50;4.00;1.00
56137;DHT22;42008;52.934;5.884;2022-11-20T12:45:24;3.70;1.00
56137;DHT22;42008;52.934;5.884;2022-11-20T12:48:07;3.90;1.00
56137;DHT22;42008;52.934;5.884;2022-11-20T13:01:54;3.60;1.00
56137;DHT22;42008;52.934;5.884;2022-11-20T13:06:46;3.50;1.00
56137;DHT22;42008;52.934;5.884;2022-11-20T13:09:15;4.60;1.00
56137;DHT22;42008;52.934;5.884;2022-11-20T13:17:07;3.70;1.00
56137;DHT22;42008;52.934;5.884;2022-11-20T13:19:35;3.80;1.00
56137;DHT22;42008;52.934;5.884;2022-11-20T13:22:01;3.40;1.00
56137;DHT22;42008;52.934;5.884;2022-11-20T13:24:30;2.60;1.00
56137;DHT22;42008;52.934;5.884;2022-11-20T13:29:27;3.40;1.00
56137;DHT22;42008;52.934;5.884;2022-11-20T13:32:04;3.30;1.00
56137;DHT22;42008;52.934;5.884;2022-11-20T13:34:31;3.70;1.00
56137;DHT22;42008;52.934;5.884;2022-11-20T13:36:58;3.20;1.00
56137;DHT22;42008;52.934;5.884;2022-11-20T13:39:31;2.80;1.00
56137;DHT22;42008;52.934;5.884;2022-11-20T13:41:58;4.00;1.00
56137;DHT22;42008;52.934;5.884;2022-11-20T13:44:37;2.90;1.00
56137;DHT22;42008;52.934;5.884;2022-11-20T13:47:04;2.40;1.00
56137;DHT22;42008;52.934;5.884;2022-11-20T13:49:42;2.50;1.00
56137;DHT22;42008;52.934;5.884;2022-11-20T13:52:37;2.10;1.00
56137;DHT22;42008;52.934;5.884;2022-11-20T14:00:27;3.60;1.00
56137;DHT22;42008;52.934;5.884;2022-11-20T14:05:25;3.20;1.00
56137;DHT22;42008;52.934;5.884;2022-11-20T14:07:51;2.50;1.00
56137;DHT22;42008;52.934;5.884;2022-11-20T14:10:23;3.30;1.00
56137;DHT22;42008;52.934;5.884;2022-11-20T14:12:49;3.80;1.00
56137;DHT22;42008;52.934;5.884;2022-11-20T14:15:32;3.20;1.00
56137;DHT22;42008;52.934;5.884;2022-11-20T14:17:59;3.70;1.00
56137;DHT22;42008;52.934;5.884;2022-11-20T14:20:37;2.90;1.00
56137;DHT22;42008;52.934;5.884;2022-11-20T14:23:04;2.90;1.00
56137;DHT22;42008;52.934;5.884;2022-11-20T14:25:30;2.90;1.00
56137;DHT22;42008;52.934;5.884;2022-11-20T14:27:58;3.10;1.00
56137;DHT22;42008;52.934;5.884;2022-11-20T14:30:35;3.50;1.00
56137;DHT22;42008;52.934;5.884;2022-11-20T14:33:02;3.10;1.00
56137;DHT22;42008;52.934;5.884;2022-11-20T14:35:31;2.50;1.00
56137;DHT22;42008;52.934;5.884;2022-11-20T14:37:57;3.00;1.00
56137;DHT22;42008;52.934;5.884;2022-11-20T14:42:52;3.50;1.00
56137;DHT22;42008;52.934;5.884;2022-11-20T14:45:18;2.90;1.00
56137;DHT22;42008;52.934;5.884;2022-11-20T14:47:45;2.50;1.00
56137;DHT22;42008;52.934;5.884;2022-11-20T14:50:29;2.60;1.00
56137;DHT22;42008;52.934;5.884;2022-11-20T14:52:57;3.40;1.00
56137;DHT22;42008;52.934;5.884;2022-11-20T14:58:01;2.40;1.00
56137;DHT22;42008;52.934;5.884;2022-11-20T15:00:28;1.90;1.00
56137;DHT22;42008;52.934;5.884;2022-11-20T15:02:54;2.60;1.00
56137;DHT22;42008;52.934;5.884;2022-11-20T15:05:22;3.10;1.00
56137;DHT22;42008;52.934;5.884;2022-11-20T15:07:51;3.60;1.00
56137;DHT22;42008;52.934;5.884;2022-11-20T15:10:25;3.50;1.00
56137;DHT22;42008;52.934;5.884;2022-11-20T15:12:53;2.70;1.00
56137;DHT22;42008;52.934;5.884;2022-11-20T15:17:53;3.80;1.00
56137;DHT22;42008;52.934;5.884;2022-11-20T15:20:20;3.30;1.00
56137;DHT22;42008;52.934;5.884;2022-11-20T15:22:48;2.80;1.00
56137;DHT22;42008;52.934;5.884;2022-11-20T15:25:15;3.40;1.00
56137;DHT22;42008;52.934;5.884;2022-11-20T15:27:42;2.30;1.00
56137;DHT22;42008;52.934;5.884;2022-11-20T15:30:14;2.10;1.00
56137;DHT22;42008;52.934;5.884;2022-11-20T15:32:41;2.70;1.00
56137;DHT22;42008;52.934;5.884;2022-11-20T15:35:07;2.20;1.00
56137;DHT22;42008;52.934;5.884;2022-11-20T15:37:33;2.90;1.00
56137;DHT22;42008;52.934;5.884;2022-11-20T15:39:59;2.30;1.00
56137;DHT22;42008;52.934;5.884;2022-11-20T15:42:24;3.60;1.00
56137;DHT22;42008;52.934;5.884;2022-11-20T15:44:50;2.40;1.00
56137;DHT22;42008;52.934;5.884;2022-11-20T15:47:15;2.40;1.00
56137;DHT22;42008;52.934;5.884;2022-11-20T15:49:43;2.30;1.00
56137;DHT22;42008;52.934;5.884;2022-11-20T15:52:15;2.30;1.00
56137;DHT22;42008;52.934;5.884;2022-11-20T15:54:41;2.70;1.00
56137;DHT22;42008;52.934;5.884;2022-11-20T15:57:07;3.30;1.00
56137;DHT22;42008;52.934;5.884;2022-11-20T15:59:32;2.40;1.00
56137;DHT22;42008;52.934;5.884;2022-11-20T16:01:58;2.00;1.00
56137;DHT22;42008;52.934;5.884;2022-11-20T16:04:24;2.30;1.00
56137;DHT22;42008;52.934;5.884;2022-11-20T16:06:50;2.40;1.00
56137;DHT22;42008;52.934;5.884;2022-11-20T16:09:15;2.90;1.00
56137;DHT22;42008;52.934;5.884;2022-11-20T16:11:41;2.30;1.00
56137;DHT22;42008;52.934;5.884;2022-11-20T16:14:10;2.30;1.00
56137;DHT22;42008;52.934;5.884;2022-11-20T16:16:54;2.60;1.00
56137;DHT22;42008;52.934;5.884;2022-11-20T16:19:20;2.60;1.00
56137;DHT22;42008;52.934;5.884;2022-11-20T16:21:46;2.20;1.00
56137;DHT22;42008;52.934;5.884;2022-11-20T16:24:13;2.40;1.00
56137;DHT22;42008;52.934;5.884;2022-11-20T16:26:40;2.40;1.00
56137;DHT22;42008;52.934;5.884;2022-11-20T16:29:09;1.70;1.00
56137;DHT22;42008;52.934;5.884;2022-11-20T16:31:35;2.00;1.00
56137;DHT22;42008;52.934;5.884;2022-11-20T16:34:04;3.10;1.00
56137;DHT22;42008;52.934;5.884;2022-11-20T16:36:31;3.30;1.00
56137;DHT22;42008;52.934;5.884;2022-11-20T16:38:59;2.30;1.00
56137;DHT22;42008;52.934;5.884;2022-11-20T16:41:26;2.50;1.00
56137;DHT22;42008;52.934;5.884;2022-11-20T16:44:00;2.60;1.00
56137;DHT22;42008;52.934;5.884;2022-11-20T16:46:30;2.60;1.00
56137;DHT22;42008;52.934;5.884;2022-11-20T16:49:05;2.50;1.00
56137;DHT22;42008;52.934;5.884;2022-11-20T16:51:33;2.20;1.00
56137;DHT22;42008;52.934;5.884;2022-11-20T16:54:01;2.00;1.00
56137;DHT22;42008;52.934;5.884;2022-11-20T16:56:27;2.60;1.00
56137;DHT22;42008;52.934;5.884;2022-11-20T16:58:54;2.40;1.00
56137;DHT22;42008;52.934;5.884;2022-11-20T17:01:21;2.30;1.00
56137;DHT22;42008;52.934;5.884;2022-11-20T17:04:04;2.10;1.00
56137;DHT22;42008;52.934;5.884;2022-11-20T17:06:35;3.00;1.00
56137;DHT22;42008;52.934;5.884;2022-11-20T17:09:01;2.20;1.00
56137;DHT22;42008;52.934;5.884;2022-11-20T17:11:27;3.30;1.00
56137;DHT22;42008;52.934;5.884;2022-11-20T17:13:54;2.40;1.00
56137;DHT22;42008;52.934;5.884;2022-11-20T17:16:23;3.10;1.00
56137;DHT22;42008;52.934;5.884;2022-11-20T17:18:49;2.50;1.00
56137;DHT22;42008;52.934;5.884;2022-11-20T17:21:15;2.40;1.00
56137;DHT22;42008;52.934;5.884;2022-11-20T17:23:42;2.20;1.00
56137;DHT22;42008;52.934;5.884;2022-11-20T17:26:10;2.40;1.00
56137;DHT22;42008;52.934;5.884;2022-11-20T17:28:37;2.70;1.00